Time;durP1;ratioP1;P1;durP2;ratioP2;P2;SDS_P1;SDS_P2;PMS_P1;PMS_P2;Temp;Humidity;BMP_temperature;BMP_pressure;BME280_temperature;BME280_humidity;BME280_pressure;Samples;Min_cycle;Max_cycle;Signal;HPM_P1;HPM_P2
2023/12/03 00:01:42;;;;;;;2.80;2.60;;;;;;;20.69;46.41;97714.97;4929941;29;20221;-28
2023/12/03 00:04:08;;;;;;;2.80;2.60;;;;;;;20.69;46.25;97717.53;4942760;29;20209;-26
2023/12/03 00:06:35;;;;;;;3.30;2.57;;;;;;;20.69;46.56;97725.19;4927165;29;20205;-27
2023/12/03 00:09:04;;;;;;;2.80;2.60;;;;;;;20.69;46.25;97724.34;4929655;29;20208;-31
2023/12/03 00:11:31;;;;;;;2.73;2.47;;;;;;;20.69;46.37;97726.88;4949023;29;20247;-27
2023/12/03 00:13:58;;;;;;;2.67;2.47;;;;;;;20.69;46.38;97721.78;4944261;29;20201;-29
2023/12/03 00:16:24;;;;;;;2.60;2.40;;;;;;;20.69;46.58;97722.63;4939046;29;20264;-30
2023/12/03 00:18:51;;;;;;;2.70;2.50;;;;;;;20.69;46.39;97721.78;4941590;29;20236;-28
2023/12/03 00:21:17;;;;;;;2.87;2.50;;;;;;;20.69;46.21;97722.63;4946217;29;20208;-27
2023/12/03 00:23:44;;;;;;;2.40;2.20;;;;;;;20.70;46.39;97731.16;4949737;29;20205;-28
2023/12/03 00:26:11;;;;;;;2.77;2.57;;;;;;;20.67;46.39;97724.28;4916204;29;20574;-26
2023/12/03 00:28:37;;;;;;;3.00;2.70;;;;;;;20.69;46.57;97732.00;4953136;29;20726;-26
2023/12/03 00:31:04;;;;;;;3.47;2.57;;;;;;;20.60;46.36;97721.44;4944018;29;20228;-26
2023/12/03 00:33:31;;;;;;;2.87;2.40;;;;;;;20.68;46.31;97737.91;4938867;29;20225;-30
2023/12/03 00:35:59;;;;;;;2.60;2.40;;;;;;;20.69;46.54;97743.06;4944929;29;20224;-28
2023/12/03 00:38:26;;;;;;;2.60;2.40;;;;;;;20.69;46.35;97740.50;4941637;29;20212;-27
2023/12/03 00:40:52;;;;;;;2.80;2.60;;;;;;;20.70;46.32;97741.38;4951387;29;20231;-27
2023/12/03 00:43:19;;;;;;;2.77;2.50;;;;;;;20.69;46.27;97744.75;4946227;29;20225;-26
2023/12/03 00:45:45;;;;;;;2.70;2.50;;;;;;;20.69;46.40;97742.22;4945213;29;20201;-28
2023/12/03 00:48:12;;;;;;;2.37;2.20;;;;;;;20.69;46.18;97747.31;4951352;29;20212;-27
2023/12/03 00:50:39;;;;;;;2.60;2.40;;;;;;;20.68;46.23;97750.66;4947044;29;20287;-26
2023/12/03 00:53:06;;;;;;;2.40;2.20;;;;;;;20.67;46.76;97747.25;4940782;29;20741;-26
2023/12/03 00:55:32;;;;;;;2.63;2.43;;;;;;;20.67;46.35;97754.91;4945492;29;20240;-27
2023/12/03 00:57:59;;;;;;;2.80;2.60;;;;;;;20.68;46.34;97753.22;4950915;29;20205;-26
2023/12/03 01:00:26;;;;;;;2.87;2.60;;;;;;;20.68;46.34;97755.78;4951045;29;20211;-29
2023/12/03 01:02:53;;;;;;;2.63;2.30;;;;;;;20.68;46.13;97760.88;4941323;29;20276;-27
2023/12/03 01:05:19;;;;;;;2.50;2.30;;;;;;;20.68;46.21;97761.75;4946950;29;20196;-28
2023/12/03 01:07:46;;;;;;;2.70;2.50;;;;;;;20.68;46.37;97771.97;4949304;29;20205;-26
2023/12/03 01:10:13;;;;;;;2.70;2.50;;;;;;;20.69;46.48;97765.19;4949282;29;20656;-29
2023/12/03 01:12:39;;;;;;;2.47;2.27;;;;;;;20.68;46.64;97771.09;4945449;29;20742;-26
2023/12/03 01:15:06;;;;;;;2.73;2.53;;;;;;;20.68;46.22;97779.63;4943695;29;20232;-26
2023/12/03 01:17:33;;;;;;;2.67;2.47;;;;;;;20.67;46.25;97780.47;4951078;29;20208;-26
2023/12/03 01:20:00;;;;;;;2.77;2.57;;;;;;;20.69;46.19;97783.91;4943817;29;20211;-26
2023/12/03 01:22:27;;;;;;;2.80;2.53;;;;;;;20.61;46.13;97769.13;4949210;29;20664;-28
2023/12/03 01:24:54;;;;;;;2.63;2.43;;;;;;;20.70;46.32;97784.81;4942718;29;20268;-31
2023/12/03 01:27:20;;;;;;;2.70;2.50;;;;;;;20.69;46.14;97801.78;4944095;29;20834;-28
2023/12/03 01:29:47;;;;;;;2.50;2.30;;;;;;;20.68;46.49;97784.75;4952250;29;20209;-26
2023/12/03 01:32:13;;;;;;;2.50;2.03;;;;;;;20.69;46.29;97803.50;4946219;29;20220;-28
2023/12/03 01:34:40;;;;;;;2.70;2.50;;;;;;;20.66;46.34;97804.25;4943900;29;20307;-27
2023/12/03 01:37:07;;;;;;;2.50;2.30;;;;;;;20.69;46.18;97817.13;4937207;29;20215;-27
2023/12/03 01:39:33;;;;;;;2.30;2.10;;;;;;;20.69;46.29;97821.38;4943119;29;20353;-26
2023/12/03 01:42:00;;;;;;;2.40;2.20;;;;;;;20.69;46.32;97824.78;4934592;29;20708;-29
2023/12/03 01:44:26;;;;;;;2.50;2.30;;;;;;;20.69;46.19;97829.03;4942345;29;20204;-26
2023/12/03 01:46:54;;;;;;;2.40;2.20;;;;;;;20.68;46.26;97833.28;4949937;29;20288;-26
2023/12/03 01:49:20;;;;;;;2.40;2.20;;;;;;;20.69;46.18;97834.16;4919656;29;20308;-27
2023/12/03 01:51:47;;;;;;;2.50;2.30;;;;;;;20.66;46.15;97829.78;4927646;29;20234;-26
2023/12/03 01:54:20;;;;;;;2.40;2.20;;;;;;;20.69;46.06;97835.00;4908785;29;20338;-26
2023/12/03 01:56:47;;;;;;;2.70;2.50;;;;;;;20.70;46.38;97830.78;4945668;28;20672;-28
2023/12/03 01:59:13;;;;;;;2.33;2.13;;;;;;;20.70;46.36;97833.31;4953019;29;20208;-27
2023/12/03 02:01:40;;;;;;;2.90;2.70;;;;;;;20.67;46.24;97836.66;4934843;29;20226;-26
2023/12/03 02:04:06;;;;;;;2.60;2.40;;;;;;;20.69;46.22;97835.00;4934431;29;20212;-32
2023/12/03 02:06:33;;;;;;;2.33;2.10;;;;;;;20.69;46.37;97839.25;4949679;29;20196;-32
2023/12/03 02:09:00;;;;;;;2.50;2.30;;;;;;;20.69;46.19;97831.59;4943733;29;20205;-26
2023/12/03 02:11:26;;;;;;;2.73;2.53;;;;;;;20.69;46.07;97839.25;4943797;29;20209;-26
2023/12/03 02:13:53;;;;;;;2.50;2.30;;;;;;;20.68;46.09;97834.94;4931170;29;20255;-26
2023/12/03 02:16:21;;;;;;;2.80;2.60;;;;;;;20.68;46.11;97837.50;4946514;29;20247;-29
2023/12/03 02:18:47;;;;;;;2.37;2.17;;;;;;;20.68;46.09;97832.38;4947020;29;20259;-27
2023/12/03 02:21:14;;;;;;;2.30;2.10;;;;;;;20.69;45.89;97839.25;4946440;29;20732;-29
2023/12/03 02:23:40;;;;;;;2.20;2.10;;;;;;;20.68;46.24;97834.94;4953697;29;20274;-26
2023/12/03 02:26:07;;;;;;;2.70;2.50;;;;;;;20.68;45.96;97834.94;4948757;29;20232;-26
2023/12/03 02:28:34;;;;;;;2.47;2.27;;;;;;;20.68;46.17;97840.06;4947262;29;20214;-29
2023/12/03 02:31:00;;;;;;;2.63;2.43;;;;;;;20.62;46.09;97827.06;4948659;29;20582;-28
2023/12/03 02:33:27;;;;;;;2.70;2.50;;;;;;;20.66;46.14;97839.13;4943862;29;20256;-26
2023/12/03 02:35:54;;;;;;;2.47;2.27;;;;;;;20.68;46.04;97842.59;4943478;29;20236;-29
2023/12/03 02:38:21;;;;;;;2.60;2.40;;;;;;;20.68;45.59;97840.94;4949264;29;20215;-26
2023/12/03 02:40:47;;;;;;;2.50;2.30;;;;;;;20.68;46.13;97845.16;4953621;29;20201;-27
2023/12/03 02:43:14;;;;;;;2.50;2.30;;;;;;;20.69;46.08;97849.47;4951978;29;20259;-26
2023/12/03 02:45:40;;;;;;;2.43;2.23;;;;;;;20.69;46.19;97846.91;4950927;29;20200;-29
2023/12/03 02:48:07;;;;;;;2.80;2.60;;;;;;;20.68;46.11;97856.25;4951667;29;20590;-29
2023/12/03 02:50:34;;;;;;;2.67;2.47;;;;;;;20.51;45.91;97826.66;4949011;29;20675;-27
2023/12/03 02:53:01;;;;;;;2.77;2.57;;;;;;;20.68;46.06;97847.72;4946665;29;20652;-26
2023/12/03 02:55:28;;;;;;;2.93;2.53;;;;;;;20.69;45.96;97857.13;4941988;29;20287;-26
2023/12/03 02:57:55;;;;;;;2.57;2.37;;;;;;;20.69;46.10;97859.69;4947766;29;20204;-26
2023/12/03 03:00:21;;;;;;;2.50;2.30;;;;;;;20.69;46.14;97859.69;4955868;29;20239;-31
2023/12/03 03:02:48;;;;;;;2.60;2.40;;;;;;;20.69;45.89;97857.13;4950613;29;20220;-26
2023/12/03 03:05:14;;;;;;;2.37;2.17;;;;;;;20.69;45.94;97857.13;4955810;29;20284;-26
2023/12/03 03:07:41;;;;;;;2.73;2.53;;;;;;;20.69;45.96;97855.44;4942640;29;20204;-26
2023/12/03 03:10:08;;;;;;;2.60;2.40;;;;;;;20.69;46.08;97868.19;4951373;29;20205;-31
2023/12/03 03:12:34;;;;;;;2.50;2.30;;;;;;;20.69;46.20;97864.78;4944318;29;20225;-26
2023/12/03 03:15:01;;;;;;;2.27;2.17;;;;;;;20.68;46.36;97869.03;4944383;29;20618;-26
2023/12/03 03:17:28;;;;;;;2.60;2.40;;;;;;;20.66;46.26;97868.09;4952055;29;20643;-31
2023/12/03 03:19:54;;;;;;;2.70;2.50;;;;;;;20.68;46.15;97874.13;4948237;29;20256;-28
2023/12/03 03:22:21;;;;;;;2.67;2.47;;;;;;;20.69;45.93;97880.13;4950225;29;20231;-27
2023/12/03 03:24:48;;;;;;;2.63;2.43;;;;;;;20.67;45.91;97867.28;4950684;29;20663;-26
2023/12/03 03:27:14;;;;;;;2.50;2.30;;;;;;;20.68;46.28;97880.91;4948095;29;20233;-28
2023/12/03 03:29:41;;;;;;;2.70;2.50;;;;;;;20.68;46.06;97873.25;4941769;29;20208;-29
2023/12/03 03:32:07;;;;;;;2.17;2.00;;;;;;;20.68;45.91;97874.13;4951159;29;20578;-26
2023/12/03 03:34:34;;;;;;;2.37;2.20;;;;;;;20.67;46.08;97884.28;4950326;29;20243;-26
2023/12/03 03:37:01;;;;;;;2.50;2.30;;;;;;;20.68;46.00;97878.34;4950741;29;20225;-29
2023/12/03 03:39:27;;;;;;;2.40;2.20;;;;;;;20.67;45.80;97880.06;4949333;29;20259;-26
2023/12/03 03:41:54;;;;;;;2.30;2.10;;;;;;;20.66;46.05;97882.56;4948696;29;20221;-26
2023/12/03 03:44:20;;;;;;;2.20;2.10;;;;;;;20.67;46.06;97886.84;4951368;29;20388;-26
2023/12/03 03:46:47;;;;;;;2.53;2.33;;;;;;;20.67;45.74;97889.41;4950510;29;20284;-31
2023/12/03 03:49:14;;;;;;;2.40;2.20;;;;;;;20.67;46.16;97886.84;4952572;29;20247;-26
2023/12/03 03:51:41;;;;;;;2.47;2.27;;;;;;;20.57;46.11;97867.72;4947338;29;20248;-29
2023/12/03 03:54:07;;;;;;;2.60;2.40;;;;;;;20.66;46.33;97891.06;4946315;29;20725;-29
2023/12/03 03:56:34;;;;;;;2.43;2.23;;;;;;;20.67;46.24;97894.50;4954438;29;20279;-29
2023/12/03 03:59:00;;;;;;;2.30;2.20;;;;;;;20.67;45.90;97895.38;4942233;29;20711;-27
2023/12/03 04:01:27;;;;;;;2.20;2.10;;;;;;;20.66;45.79;97896.19;4945655;29;20630;-26
2023/12/03 04:03:53;;;;;;;2.27;2.07;;;;;;;20.67;45.87;97907.28;4947545;29;20239;-26
2023/12/03 04:06:20;;;;;;;2.57;2.37;;;;;;;20.66;45.82;97903.84;4952544;29;20205;-28
2023/12/03 04:08:48;;;;;;;2.43;2.23;;;;;;;20.65;45.93;97912.31;4952341;29;20201;-27
2023/12/03 04:11:15;;;;;;;2.33;2.20;;;;;;;20.67;45.89;97913.25;4949347;29;20698;-26
2023/12/03 04:13:41;;;;;;;2.70;2.50;;;;;;;20.66;45.83;97908.94;4952238;29;20196;-26
2023/12/03 04:16:08;;;;;;;2.70;2.50;;;;;;;20.67;46.12;97905.59;4948467;29;20425;-28
2023/12/03 04:18:37;;;;;;;2.50;2.30;;;;;;;20.67;46.02;97917.50;4942595;29;20200;-26
2023/12/03 04:21:12;;;;;;;2.73;2.53;;;;;;;20.67;45.90;97918.38;4946479;29;20675;-27
2023/12/03 04:23:39;;;;;;;2.50;2.30;;;;;;;20.67;46.14;97912.38;4920235;29;20205;-28
2023/12/03 04:26:07;;;;;;;2.30;2.20;;;;;;;20.67;46.03;97912.38;4946950;29;20200;-26
2023/12/03 04:28:34;;;;;;;2.50;2.30;;;;;;;20.67;45.90;97913.25;4939909;29;20208;-26
2023/12/03 04:31:00;;;;;;;2.30;2.10;;;;;;;20.67;45.94;97913.25;4941604;29;20700;-26
2023/12/03 04:33:27;;;;;;;2.60;2.40;;;;;;;20.68;45.95;97925.22;4946119;29;20233;-28
2023/12/03 04:35:54;;;;;;;2.37;2.17;;;;;;;20.68;45.99;97925.22;4944598;29;20312;-26
2023/12/03 04:38:20;;;;;;;2.60;2.40;;;;;;;20.67;45.79;97923.47;4955189;29;20242;-26
2023/12/03 04:40:47;;;;;;;2.17;1.97;;;;;;;20.68;45.92;97926.88;4940662;29;20249;-27
2023/12/03 04:43:14;;;;;;;2.33;2.13;;;;;;;20.68;45.71;97930.31;4950107;29;20247;-32
2023/12/03 04:45:40;;;;;;;2.37;2.17;;;;;;;20.67;45.78;97933.69;4948042;29;20193;-26
2023/12/03 04:48:07;;;;;;;2.23;2.13;;;;;;;20.67;45.83;97938.81;4943970;29;20292;-26
2023/12/03 04:50:34;;;;;;;2.20;2.03;;;;;;;20.67;45.97;97933.69;4942138;29;20715;-26
2023/12/03 04:53:00;;;;;;;2.30;2.10;;;;;;;20.68;45.85;97937.97;4947513;29;20220;-26
2023/12/03 04:55:27;;;;;;;2.67;2.47;;;;;;;20.69;45.93;97936.31;4947995;29;20648;-26
2023/12/03 04:57:53;;;;;;;2.40;2.20;;;;;;;20.69;45.88;97936.31;4942545;29;20200;-26
2023/12/03 05:00:20;;;;;;;2.60;2.40;;;;;;;20.68;45.90;97935.44;4949533;29;20245;-30
2023/12/03 05:02:47;;;;;;;1.90;1.80;;;;;;;20.68;45.87;97942.19;4947632;29;20282;-27
2023/12/03 05:05:13;;;;;;;2.13;1.93;;;;;;;20.68;46.03;97943.09;4943304;29;20292;-26
2023/12/03 05:07:40;;;;;;;2.23;2.10;;;;;;;20.65;46.02;97929.31;4946152;29;20640;-26
2023/12/03 05:10:07;;;;;;;2.30;2.10;;;;;;;20.68;45.94;97932.00;4938770;29;20212;-31
2023/12/03 05:12:33;;;;;;;2.40;2.20;;;;;;;20.67;45.71;97927.69;4945510;29;20266;-27
2023/12/03 05:15:00;;;;;;;2.27;2.13;;;;;;;20.68;45.77;97932.00;4946099;29;20207;-26
2023/12/03 05:17:27;;;;;;;2.00;1.90;;;;;;;20.67;45.94;97928.59;4946674;29;20256;-31
2023/12/03 05:19:53;;;;;;;2.30;2.10;;;;;;;20.67;45.71;97928.59;4944658;29;20205;-27
2023/12/03 05:22:20;;;;;;;2.20;2.00;;;;;;;20.67;46.04;97936.25;4948001;29;20782;-26
2023/12/03 05:24:48;;;;;;;2.77;2.57;;;;;;;20.66;45.83;97931.94;4951555;29;20711;-29
2023/12/03 05:27:14;;;;;;;2.40;2.20;;;;;;;20.67;45.92;97936.25;4950369;29;21578;-26
2023/12/03 05:29:43;;;;;;;2.40;2.20;;;;;;;20.68;45.70;97939.66;4950864;29;20348;-32
2023/12/03 05:32:10;;;;;;;2.33;2.10;;;;;;;20.67;45.83;97938.81;4950922;29;20235;-28
2023/12/03 05:34:36;;;;;;;2.17;2.07;;;;;;;20.68;45.88;97948.19;4948428;29;20205;-26
2023/12/03 05:37:04;;;;;;;2.37;2.17;;;;;;;20.68;45.85;97952.41;4951028;29;20224;-26
2023/12/03 05:39:30;;;;;;;2.10;2.00;;;;;;;20.61;45.96;97940.22;4952356;29;20578;-27
2023/12/03 05:41:57;;;;;;;2.00;1.90;;;;;;;20.68;46.03;97957.53;4951122;29;20224;-26
2023/12/03 05:44:24;;;;;;;2.40;2.20;;;;;;;20.68;45.83;97957.53;4950508;29;20234;-27
2023/12/03 05:46:50;;;;;;;2.20;2.10;;;;;;;20.68;46.00;97962.63;4951663;29;20197;-28
2023/12/03 05:49:17;;;;;;;2.50;2.30;;;;;;;20.68;45.87;97962.63;4951217;29;20207;-28
2023/12/03 05:51:44;;;;;;;2.50;2.30;;;;;;;20.68;45.98;97957.53;4951331;29;20580;-26
2023/12/03 05:54:11;;;;;;;2.43;2.23;;;;;;;20.68;46.29;97954.97;4949220;29;20201;-33
2023/12/03 05:56:37;;;;;;;2.53;2.33;;;;;;;20.67;45.94;97951.56;4950305;29;20220;-26
2023/12/03 05:59:04;;;;;;;2.27;2.13;;;;;;;20.68;45.72;97957.53;4950356;29;20728;-26
2023/12/03 06:01:30;;;;;;;2.27;2.13;;;;;;;20.67;45.89;97958.34;4952167;29;20219;-26
2023/12/03 06:03:57;;;;;;;2.93;2.73;;;;;;;20.68;45.52;97960.09;4949801;29;20204;-29
2023/12/03 06:06:24;;;;;;;2.37;2.17;;;;;;;20.67;45.61;97960.91;4950078;29;20645;-27
2023/12/03 06:08:50;;;;;;;2.37;2.17;;;;;;;20.68;45.61;97955.84;4950889;29;20641;-26
2023/12/03 06:11:17;;;;;;;2.30;2.20;;;;;;;20.67;45.75;97953.25;4950674;29;20326;-30
2023/12/03 06:13:44;;;;;;;2.23;2.10;;;;;;;20.68;45.81;97949.88;4951233;29;20200;-26
2023/12/03 06:16:10;;;;;;;1.90;1.80;;;;;;;20.67;45.95;97955.78;4951114;29;20232;-33
2023/12/03 06:18:37;;;;;;;2.50;2.30;;;;;;;20.67;45.80;97956.69;4948700;29;20255;-26
2023/12/03 06:21:04;;;;;;;2.10;2.00;;;;;;;20.67;45.88;97954.13;4950619;29;20630;-27
2023/12/03 06:23:30;;;;;;;2.07;1.97;;;;;;;20.67;45.54;97954.13;4950464;29;20274;-26
2023/12/03 06:25:59;;;;;;;2.53;2.33;;;;;;;20.67;45.87;97956.69;4950866;29;20196;-26
2023/12/03 06:28:26;;;;;;;2.50;2.30;;;;;;;20.67;45.74;97961.78;4952670;29;20255;-29
2023/12/03 06:30:52;;;;;;;2.37;2.17;;;;;;;20.68;45.79;97965.19;4946912;29;20208;-27
2023/12/03 06:33:19;;;;;;;2.43;2.23;;;;;;;20.68;45.74;97962.63;4952140;29;20579;-26
2023/12/03 06:35:49;;;;;;;2.23;2.13;;;;;;;20.67;45.69;97972.00;4949504;29;20316;-26
2023/12/03 06:38:16;;;;;;;2.37;2.20;;;;;;;20.67;45.87;97972.00;4948240;29;20235;-28
2023/12/03 06:40:43;;;;;;;2.00;1.90;;;;;;;20.67;45.58;97983.88;4946279;29;20255;-26
2023/12/03 06:43:10;;;;;;;2.47;2.23;;;;;;;20.66;45.79;97993.22;4947855;29;20236;-26
2023/12/03 06:45:37;;;;;;;2.33;2.17;;;;;;;20.67;45.64;97996.66;4939413;29;20228;-35
2023/12/03 06:48:04;;;;;;;2.17;2.07;;;;;;;20.67;45.55;98002.66;4940879;29;20201;-26
2023/12/03 06:50:31;;;;;;;2.10;2.00;;;;;;;20.67;45.68;98004.31;4943163;29;20203;-29
2023/12/03 06:52:58;;;;;;;2.10;2.00;;;;;;;20.66;45.70;98006.00;4945685;29;20221;-26
2023/12/03 06:55:24;;;;;;;1.90;1.80;;;;;;;20.67;45.60;98012.88;4948717;29;20201;-26
2023/12/03 06:57:51;;;;;;;2.40;2.20;;;;;;;20.67;45.63;98020.53;4945632;29;20228;-26
2023/12/03 07:00:18;;;;;;;2.20;2.10;;;;;;;20.67;45.60;98020.53;4944534;29;20236;-27
2023/12/03 07:02:44;;;;;;;2.57;2.37;;;;;;;20.68;45.71;98036.69;4952603;28;20224;-26
2023/12/03 07:05:11;;;;;;;2.23;2.13;;;;;;;20.67;45.55;98043.50;4929384;29;20232;-26
2023/12/03 07:07:37;;;;;;;2.50;2.30;;;;;;;20.68;45.50;98044.38;4954478;29;20200;-29
2023/12/03 07:10:04;;;;;;;2.20;2.10;;;;;;;20.68;45.68;98042.69;4955083;29;20205;-27
2023/12/03 07:12:31;;;;;;;2.30;2.20;;;;;;;20.68;45.60;98047.81;4950811;29;20228;-26
2023/12/03 07:14:58;;;;;;;2.50;2.30;;;;;;;20.69;45.41;98049.53;4951342;29;20205;-31
2023/12/03 07:17:24;;;;;;;2.13;2.03;;;;;;;20.68;45.55;98047.81;4945486;29;20712;-27
2023/12/03 07:19:51;;;;;;;2.20;2.10;;;;;;;20.68;45.48;98042.69;4953038;29;20585;-26
2023/12/03 07:22:17;;;;;;;2.50;2.30;;;;;;;20.68;45.55;98044.38;4944815;29;20239;-26
2023/12/03 07:24:44;;;;;;;2.20;2.10;;;;;;;20.69;45.66;98051.25;4946460;29;20204;-35
2023/12/03 07:27:11;;;;;;;2.20;2.10;;;;;;;20.69;45.69;98061.47;4949025;29;20193;-28
2023/12/03 07:29:37;;;;;;;2.60;2.40;;;;;;;20.69;45.61;98064.00;4949557;29;20201;-30
2023/12/03 07:32:04;;;;;;;2.60;2.40;;;;;;;20.67;45.82;98055.41;4952183;29;20703;-33
2023/12/03 07:34:31;;;;;;;2.50;2.30;;;;;;;20.69;45.73;98061.47;4952671;29;20203;-27
2023/12/03 07:36:58;;;;;;;2.50;2.30;;;;;;;20.67;45.23;98063.94;4954601;29;20212;-26
2023/12/03 07:39:24;;;;;;;2.70;2.50;;;;;;;20.68;45.09;98064.78;4951891;29;20304;-26
2023/12/03 07:41:52;;;;;;;3.53;2.40;;;;;;;20.66;45.28;98062.19;4947322;29;20267;-26
2023/12/03 07:44:19;;;;;;;2.40;2.20;;;;;;;20.68;45.54;98069.91;4944542;29;20228;-26
2023/12/03 07:46:46;;;;;;;2.97;2.77;;;;;;;20.67;45.44;98073.28;4943543;29;20196;-26
2023/12/03 07:49:12;;;;;;;2.57;2.37;;;;;;;20.67;45.43;98079.28;4952374;29;20204;-26
2023/12/03 07:51:39;;;;;;;2.67;2.50;;;;;;;20.67;45.46;98079.28;4944692;29;20224;-28
2023/12/03 07:54:06;;;;;;;2.43;2.23;;;;;;;20.68;45.30;98082.69;4952611;29;20208;-26
2023/12/03 07:56:36;;;;;;;2.70;2.50;;;;;;;20.66;45.23;98081.75;4944158;29;20279;-33
2023/12/03 07:59:03;;;;;;;2.70;2.50;;;;;;;20.67;45.20;98083.50;4949832;29;20334;-27
2023/12/03 08:01:29;;;;;;;2.90;2.70;;;;;;;20.65;45.14;98096.19;4931873;29;20272;-28
2023/12/03 08:03:56;;;;;;;5.50;2.30;;;;;;;20.68;45.43;98101.44;4946142;29;20209;-27
2023/12/03 08:06:23;;;;;;;3.20;2.30;;;;;;;20.69;45.37;98098.06;4945829;29;20634;-36
2023/12/03 08:08:51;;;;;;;2.40;2.20;;;;;;;20.68;45.28;98098.88;4947377;29;20229;-31
2023/12/03 08:11:18;;;;;;;3.10;2.80;;;;;;;20.67;45.21;98092.03;4951343;29;20263;-26
2023/12/03 08:13:45;;;;;;;3.00;2.70;;;;;;;20.69;45.24;98097.22;4943911;29;20284;-26
2023/12/03 08:16:12;;;;;;;3.20;2.90;;;;;;;20.69;45.13;98100.63;4943798;29;20211;-29
2023/12/03 08:18:38;;;;;;;3.20;2.40;;;;;;;20.69;44.83;98103.16;4938736;29;20260;-31
2023/12/03 08:21:05;;;;;;;3.80;2.90;;;;;;;20.67;44.95;98109.91;4951790;29;20212;-28
2023/12/03 08:23:32;;;;;;;10.47;6.87;;;;;;;20.65;40.29;98108.97;4945077;29;20255;-28
2023/12/03 08:25:59;;;;;;;17.90;9.87;;;;;;;20.63;37.02;98100.38;4940745;29;20288;-28
2023/12/03 08:28:25;;;;;;;24.60;12.77;;;;;;;20.59;34.75;98101.06;4944210;29;20209;-26
2023/12/03 08:30:52;;;;;;;40.17;17.73;;;;;;;20.58;34.13;98106.09;4943629;29;20268;-26
2023/12/03 08:33:19;;;;;;;72.40;24.90;;;;;;;20.54;33.07;98110.19;4949735;29;20909;-27
2023/12/03 08:35:46;;;;;;;71.73;25.30;;;;;;;20.52;32.43;98106.69;4949266;29;20203;-26
2023/12/03 08:38:13;;;;;;;62.17;23.23;;;;;;;20.48;31.45;98107.38;4944556;29;20316;-26
2023/12/03 08:40:39;;;;;;;56.50;21.63;;;;;;;20.44;30.77;98107.19;4942272;29;20232;-28
2023/12/03 08:43:06;;;;;;;53.33;21.93;;;;;;;20.43;31.64;98105.44;4951686;29;20695;-28
2023/12/03 08:45:33;;;;;;;51.83;21.33;;;;;;;20.42;33.01;98101.13;4948954;29;20208;-27
2023/12/03 08:48:00;;;;;;;56.20;21.57;;;;;;;20.42;34.43;98109.66;4952493;29;20715;-29
2023/12/03 08:50:28;;;;;;;45.53;19.87;;;;;;;20.41;35.21;98110.50;4950398;29;20200;-27
2023/12/03 08:52:55;;;;;;;50.23;21.33;;;;;;;20.42;35.46;98116.44;4944053;29;20224;-26
2023/12/03 08:55:21;;;;;;;52.13;19.67;;;;;;;20.42;35.62;98116.44;4944824;29;20236;-26
2023/12/03 08:57:48;;;;;;;51.23;19.23;;;;;;;20.41;35.98;98123.25;4945927;29;20735;-34
2023/12/03 09:00:15;;;;;;;47.33;19.13;;;;;;;20.43;36.83;98124.16;4945903;29;20208;-26
2023/12/03 09:02:48;;;;;;;53.13;19.80;;;;;;;20.42;37.20;98119.00;4949639;29;20224;-29
2023/12/03 09:05:15;;;;;;;42.63;17.43;;;;;;;20.42;37.35;98117.31;4940049;29;20201;-27
2023/12/03 09:07:41;;;;;;;40.53;16.60;;;;;;;20.45;37.96;98122.56;4951023;29;20672;-26
2023/12/03 09:10:08;;;;;;;38.97;18.07;;;;;;;20.44;38.26;98128.50;4950932;29;20691;-26
2023/12/03 09:12:35;;;;;;;40.50;18.17;;;;;;;20.47;38.47;98131.19;4948190;29;20312;-31
2023/12/03 09:15:01;;;;;;;32.97;16.33;;;;;;;20.48;38.98;98127.81;4950557;29;20200;-26
2023/12/03 09:17:28;;;;;;;40.03;17.33;;;;;;;20.49;39.50;98127.00;4929855;29;20663;-26
2023/12/03 09:19:55;;;;;;;40.93;16.40;;;;;;;20.50;39.69;98131.31;4948619;29;20211;-30
2023/12/03 09:22:21;;;;;;;36.20;15.63;;;;;;;20.52;39.95;98137.31;4942087;29;20267;-29
2023/12/03 09:24:48;;;;;;;40.73;15.90;;;;;;;20.47;40.44;98137.94;4938683;29;20769;-26
2023/12/03 09:27:15;;;;;;;30.60;14.90;;;;;;;20.52;38.21;98132.22;4943834;29;20211;-26
2023/12/03 09:29:42;;;;;;;24.97;13.87;;;;;;;20.51;38.84;98135.59;4950143;29;20224;-26
2023/12/03 09:32:09;;;;;;;29.53;14.53;;;;;;;20.52;39.33;98137.31;4950372;29;20255;-27
2023/12/03 09:34:35;;;;;;;24.87;13.53;;;;;;;20.52;36.93;98136.47;4947621;29;20704;-26
2023/12/03 09:37:02;;;;;;;23.03;12.77;;;;;;;20.50;36.54;98138.97;4952058;29;20216;-29
2023/12/03 09:39:29;;;;;;;19.27;12.30;;;;;;;20.49;35.81;98137.19;4943980;29;20193;-26
2023/12/03 09:41:55;;;;;;;23.23;12.03;;;;;;;20.47;37.10;98136.28;4946432;29;20252;-27
2023/12/03 09:45:01;;;;;;;22.13;12.10;;;;;;;20.48;37.64;98140.56;4919741;29;20228;-26
2023/12/03 09:47:27;;;;;;;21.80;12.77;;;;;;;20.46;37.87;98128.56;4914887;29;20247;-26
2023/12/03 09:49:55;;;;;;;22.33;12.00;;;;;;;20.48;38.23;98132.03;4914314;29;20205;-35
2023/12/03 09:52:22;;;;;;;20.00;11.23;;;;;;;20.49;38.19;98131.25;4941083;29;20224;-26
2023/12/03 09:54:48;;;;;;;18.13;10.90;;;;;;;20.49;38.92;98128.69;4909528;29;20205;-26
2023/12/03 09:57:15;;;;;;;20.67;11.30;;;;;;;20.46;38.33;98126.84;4917265;29;20303;-27
2023/12/03 09:59:46;;;;;;;17.57;10.97;;;;;;;20.48;38.54;98125.25;4921326;29;20663;-26
2023/12/03 10:02:13;;;;;;;16.87;11.03;;;;;;;20.48;37.66;98126.91;4950024;29;20668;-26
2023/12/03 10:04:40;;;;;;;15.00;10.10;;;;;;;20.48;38.00;98121.81;4947883;29;20292;-26
2023/12/03 10:07:07;;;;;;;15.30;10.50;;;;;;;20.48;38.38;98122.69;4950822;29;20200;-27
2023/12/03 10:09:33;;;;;;;16.03;9.97;;;;;;;20.47;38.42;98123.53;4944956;29;20268;-28
2023/12/03 10:12:05;;;;;;;15.77;9.77;;;;;;;20.45;39.08;98120.00;4944322;29;20695;-27
2023/12/03 10:14:31;;;;;;;17.07;10.07;;;;;;;20.46;38.91;98116.66;4940362;29;20205;-32
2023/12/03 10:16:58;;;;;;;18.13;10.40;;;;;;;20.47;39.37;98117.53;4950471;29;20236;-27
2023/12/03 10:19:28;;;;;;;16.20;10.27;;;;;;;20.46;38.29;98115.78;4936823;29;20559;-30
2023/12/03 10:21:55;;;;;;;12.97;9.30;;;;;;;20.46;38.39;98115.78;4951520;29;20232;-27
2023/12/03 10:24:22;;;;;;;14.03;9.70;;;;;;;20.45;38.81;98117.47;4951481;29;20295;-33
2023/12/03 10:26:50;;;;;;;15.30;9.97;;;;;;;20.45;39.05;98114.91;4942344;29;20641;-28
2023/12/03 10:29:19;;;;;;;15.47;9.10;;;;;;;20.44;39.14;98113.16;4942493;29;20201;-26
2023/12/03 10:31:48;;;;;;;18.37;9.30;;;;;;;20.45;39.18;98121.69;4945052;29;20234;-26
2023/12/03 10:34:16;;;;;;;13.87;9.27;;;;;;;20.44;39.58;98125.94;4939576;29;20272;-26
2023/12/03 10:36:43;;;;;;;11.10;8.23;;;;;;;20.44;39.64;98125.06;4939118;29;20208;-31
2023/12/03 10:39:09;;;;;;;13.60;8.60;;;;;;;20.46;39.69;98129.41;4948445;28;20224;-26
2023/12/03 10:41:36;;;;;;;13.10;8.83;;;;;;;20.49;39.81;98119.31;4946074;29;20583;-26
2023/12/03 10:44:03;;;;;;;14.43;8.37;;;;;;;20.52;40.67;98116.91;4954308;29;20273;-30
2023/12/03 10:46:29;;;;;;;15.43;8.50;;;;;;;20.53;41.58;98113.56;4950353;29;20204;-26
2023/12/03 10:48:56;;;;;;;13.63;8.43;;;;;;;20.57;42.17;98106.91;4946987;29;20279;-29
2023/12/03 10:51:22;;;;;;;10.90;7.03;;;;;;;20.58;42.24;98117.19;4933382;29;20211;-28
2023/12/03 10:53:49;;;;;;;11.07;7.40;;;;;;;20.60;42.31;98119.81;4930993;29;20204;-28
2023/12/03 10:56:16;;;;;;;10.97;7.27;;;;;;;20.61;42.23;98122.44;4949800;29;20240;-30
2023/12/03 10:58:42;;;;;;;11.47;7.27;;;;;;;20.64;42.61;98122.56;4930898;29;20303;-27
2023/12/03 11:01:20;;;;;;;12.73;6.77;;;;;;;20.64;42.23;98130.22;4937383;29;20200;-26
2023/12/03 11:04:02;;;;;;;14.97;8.50;;;;;;;20.62;36.10;98105.41;4948998;29;20240;-26
2023/12/03 11:06:32;;;;;;;11.10;9.33;;;;;;;20.56;34.11;98117.91;4924886;29;20197;-26
2023/12/03 11:08:59;;;;;;;10.63;8.73;;;;;;;20.57;36.76;98117.13;4931064;29;20205;-26
2023/12/03 11:11:26;;;;;;;9.97;8.53;;;;;;;20.57;37.40;98114.56;4922443;29;20265;-29
2023/12/03 11:13:54;;;;;;;11.17;8.77;;;;;;;20.51;37.68;98096.41;4929507;29;20245;-27
2023/12/03 11:16:21;;;;;;;11.00;8.40;;;;;;;20.58;37.70;98106.97;4949728;28;20232;-29
2023/12/03 11:19:11;;;;;;;10.57;8.13;;;;;;;20.60;38.10;98101.94;4949721;29;20311;-26
2023/12/03 11:21:51;;;;;;;9.53;8.30;;;;;;;20.62;38.40;98105.41;4936153;29;20240;-27
2023/12/03 11:24:39;;;;;;;10.73;7.63;;;;;;;20.64;38.80;98116.56;4938104;29;20204;-28
2023/12/03 11:27:07;;;;;;;10.70;7.63;;;;;;;20.63;38.76;98104.63;4952201;29;20210;-28
2023/12/03 11:29:46;;;;;;;8.40;6.80;;;;;;;20.66;39.02;98107.31;4954047;29;20248;-26